createdAt,value
2023-05-05T00:00:19.177Z,3591.00
2023-05-05T00:01:19.187Z,3585.00
2023-05-05T00:02:19.245Z,3574.00
2023-05-05T00:03:19.282Z,3566.00
2023-05-05T00:04:19.287Z,3564.00
2023-05-05T00:05:19.243Z,3572.00
2023-05-05T00:06:19.248Z,3565.00
2023-05-05T00:07:19.255Z,3570.00
2023-05-05T00:08:19.289Z,3563.00
2023-05-05T00:09:19.333Z,3564.00
2023-05-05T00:10:19.391Z,3560.00
2023-05-05T00:11:19.349Z,3557.00
2023-05-05T00:12:19.402Z,3557.00
2023-05-05T00:13:19.418Z,3555.00
2023-05-05T00:14:19.421Z,3545.00
2023-05-05T00:15:19.473Z,3550.00
2023-05-05T00:16:19.543Z,3543.00
2023-05-05T00:17:19.555Z,3546.00
2023-05-05T00:18:19.494Z,3564.00
2023-05-05T00:19:19.546Z,3547.00
2023-05-05T00:20:19.567Z,3544.00
2023-05-05T00:21:19.688Z,3530.00
2023-05-05T00:22:19.599Z,3538.00
2023-05-05T00:23:19.639Z,3541.00
2023-05-05T00:24:19.642Z,3538.00
2023-05-05T00:25:19.655Z,3528.00
2023-05-05T00:26:19.710Z,3546.00
2023-05-05T00:27:19.697Z,3531.00
2023-05-05T00:28:19.728Z,3515.00
2023-05-05T00:29:19.781Z,3521.00
2023-05-05T00:30:19.792Z,3511.00
2023-05-05T00:31:19.872Z,3516.00
2023-05-05T00:32:19.861Z,3515.00
2023-05-05T00:33:19.863Z,3504.00
2023-05-05T00:34:19.884Z,3525.00
2023-05-05T00:35:19.937Z,3515.00
2023-05-05T00:36:19.905Z,3511.00
2023-05-05T00:37:19.924Z,3507.00
2023-05-05T00:38:19.960Z,3505.00
2023-05-05T00:39:20.012Z,3506.00
2023-05-05T00:40:20.026Z,3499.00
2023-05-05T00:41:20.025Z,3497.00
2023-05-05T00:42:20.040Z,3492.00
2023-05-05T00:43:20.058Z,3485.00
2023-05-05T00:44:20.144Z,3488.00
2023-05-05T00:45:20.170Z,3488.00
2023-05-05T00:46:20.211Z,3471.00
2023-05-05T00:47:20.136Z,3473.00
2023-05-05T00:48:20.189Z,3497.00
2023-05-05T00:49:20.206Z,3482.00
2023-05-05T00:50:20.235Z,3470.00
2023-05-05T00:51:20.253Z,3478.00
2023-05-05T00:52:20.253Z,3478.00
2023-05-05T00:53:20.312Z,3481.00
2023-05-05T00:54:20.317Z,3479.00
2023-05-05T00:55:20.339Z,3480.00
2023-05-05T00:56:20.325Z,3483.00
2023-05-05T00:57:20.383Z,3476.00
2023-05-05T00:58:20.369Z,3473.00
2023-05-05T00:59:20.436Z,3477.00
2023-05-05T01:00:20.470Z,3465.00
2023-05-05T01:01:20.501Z,3466.00
2023-05-05T01:02:20.513Z,3462.00
2023-05-05T01:03:20.608Z,3468.00
2023-05-05T01:04:20.546Z,3462.00
2023-05-05T01:05:20.594Z,3469.00
2023-05-05T01:06:20.604Z,3456.00
2023-05-05T01:07:20.601Z,3457.00
2023-05-05T01:08:20.658Z,3441.00
2023-05-05T01:09:20.645Z,3450.00
2023-05-05T01:10:21.078Z,3445.00
2023-05-05T01:11:20.799Z,3443.00
2023-05-05T01:12:20.742Z,3433.00
2023-05-05T01:13:20.775Z,3432.00
2023-05-05T01:14:20.804Z,3422.00
2023-05-05T01:15:20.821Z,3425.00
2023-05-05T01:16:20.902Z,3422.00
2023-05-05T01:17:20.886Z,3427.00
2023-05-05T01:18:20.891Z,3417.00
2023-05-05T01:19:20.933Z,3415.00
2023-05-05T01:20:20.925Z,3426.00
2023-05-05T01:21:21.493Z,3407.00
2023-05-05T01:22:21.032Z,3410.00
2023-05-05T01:23:21.021Z,3410.00
2023-05-05T01:24:21.069Z,3415.00
2023-05-05T01:25:21.087Z,3404.00
2023-05-05T01:26:21.146Z,3406.00
2023-05-05T01:27:21.166Z,3404.00
2023-05-05T01:28:21.169Z,3397.00
2023-05-05T01:29:21.159Z,3398.00
2023-05-05T01:30:21.231Z,3399.00
2023-05-05T01:31:21.311Z,3394.00
2023-05-05T01:32:21.313Z,3382.00
2023-05-05T01:33:21.322Z,3378.00
2023-05-05T01:34:21.357Z,3401.00
2023-05-05T01:35:21.362Z,3391.00
2023-05-05T01:36:21.364Z,3379.00
2023-05-05T01:37:21.399Z,3377.00
2023-05-05T01:38:21.569Z,3390.00
2023-05-05T01:39:21.461Z,3376.00
2023-05-05T01:40:21.494Z,3373.00
2023-05-05T01:41:21.545Z,3375.00
2023-05-05T01:42:21.535Z,3370.00
2023-05-05T01:43:21.572Z,3364.00
2023-05-05T01:44:21.625Z,3358.00
2023-05-05T01:45:21.603Z,3376.00
2023-05-05T01:46:21.680Z,3361.00
2023-05-05T01:47:21.703Z,3366.00
2023-05-05T01:48:21.728Z,3354.00
2023-05-05T01:49:21.728Z,3364.00
2023-05-05T01:50:21.743Z,3353.00
2023-05-05T01:51:21.768Z,3347.00
2023-05-05T01:52:21.808Z,3343.00
2023-05-05T01:53:21.891Z,3352.00
2023-05-05T01:54:21.895Z,3351.00
2023-05-05T01:55:21.925Z,3329.00
2023-05-05T01:56:21.959Z,3348.00
2023-05-05T01:57:21.982Z,3336.00
2023-05-05T01:58:21.980Z,3348.00
2023-05-05T01:59:22.024Z,3341.00
2023-05-05T02:00:22.098Z,3340.00
2023-05-05T02:01:22.113Z,3327.00
2023-05-05T02:02:22.185Z,3329.00
2023-05-05T02:03:22.301Z,3342.00
2023-05-05T02:04:22.207Z,3327.00
2023-05-05T02:05:22.242Z,3321.00
2023-05-05T02:06:22.260Z,3327.00
2023-05-05T02:07:22.292Z,3318.00
2023-05-05T02:08:22.276Z,3319.00
2023-05-05T02:09:22.336Z,3322.00
2023-05-05T02:10:22.397Z,3303.00
2023-05-05T02:11:22.377Z,3314.00
2023-05-05T02:12:22.400Z,3307.00
2023-05-05T02:13:22.502Z,3310.00
2023-05-05T02:14:22.503Z,3315.00
2023-05-05T02:15:22.568Z,3299.00
2023-05-05T02:16:22.593Z,3297.00
2023-05-05T02:17:22.686Z,3301.00
2023-05-05T02:18:22.599Z,3300.00
2023-05-05T02:19:22.639Z,3296.00
2023-05-05T02:20:22.680Z,3286.00
2023-05-05T02:21:22.769Z,3290.00
2023-05-05T02:22:22.750Z,3282.00
2023-05-05T02:23:22.736Z,3273.00
2023-05-05T02:24:22.829Z,3277.00
2023-05-05T02:25:22.835Z,3289.00
2023-05-05T02:26:22.864Z,3269.00
2023-05-05T02:27:22.998Z,3261.00
2023-05-05T02:28:22.918Z,3285.00
2023-05-05T02:29:22.968Z,3280.00
2023-05-05T02:30:22.962Z,3276.00
2023-05-05T02:31:23.091Z,3278.00
2023-05-05T02:32:23.103Z,3263.00
2023-05-05T02:33:23.081Z,3277.00
2023-05-05T02:34:23.093Z,3261.00
2023-05-05T02:35:23.116Z,3271.00
2023-05-05T02:36:23.144Z,3259.00
2023-05-05T02:37:23.226Z,3262.00
2023-05-05T02:38:23.206Z,3266.00
2023-05-05T02:39:23.287Z,3260.00
2023-05-05T02:40:23.270Z,3259.00
2023-05-05T02:41:23.315Z,3246.00
2023-05-05T02:42:23.358Z,3243.00
2023-05-05T02:43:23.396Z,3253.00
2023-05-05T02:44:23.421Z,3233.00
2023-05-05T02:45:23.464Z,3245.00
2023-05-05T02:46:23.487Z,3249.00
2023-05-05T02:47:23.535Z,3238.00
2023-05-05T02:48:23.516Z,3244.00
2023-05-05T02:49:23.576Z,3236.00
2023-05-05T02:50:23.565Z,3230.00
2023-05-05T02:51:23.640Z,3253.00
2023-05-05T02:52:23.643Z,3231.00
2023-05-05T02:53:23.644Z,3222.00
2023-05-05T02:54:23.700Z,3234.00
2023-05-05T02:55:23.771Z,3227.00
2023-05-05T02:56:23.778Z,3225.00
2023-05-05T02:57:23.813Z,3244.00
2023-05-05T02:58:23.825Z,3220.00
2023-05-05T02:59:23.888Z,3214.00
2023-05-05T03:00:23.907Z,3220.00
2023-05-05T03:01:23.929Z,3221.00
2023-05-05T03:02:23.973Z,3214.00
2023-05-05T03:03:24.101Z,3211.00
2023-05-05T03:04:24.036Z,3205.00
2023-05-05T03:05:24.089Z,3198.00
2023-05-05T03:06:24.155Z,3195.00
2023-05-05T03:07:24.224Z,3191.00
2023-05-05T03:08:24.153Z,3196.00
2023-05-05T03:09:24.222Z,3195.00
2023-05-05T03:10:24.242Z,3188.00
2023-05-05T03:11:24.271Z,3184.00
2023-05-05T03:12:24.296Z,3182.00
2023-05-05T03:13:24.317Z,3189.00
2023-05-05T03:14:24.448Z,3193.00
2023-05-05T03:15:24.410Z,3180.00
2023-05-05T03:16:24.492Z,3186.00
2023-05-05T03:17:24.597Z,3180.00
2023-05-05T03:18:24.548Z,3177.00
2023-05-05T03:19:24.671Z,3166.00
2023-05-05T03:20:24.591Z,3174.00
2023-05-05T03:21:24.763Z,3156.00
2023-05-05T03:22:24.698Z,3163.00
2023-05-05T03:23:24.705Z,3174.00
2023-05-05T03:24:24.724Z,3175.00
2023-05-05T03:25:24.782Z,3151.00
2023-05-05T03:26:24.787Z,3169.00
2023-05-05T03:27:24.839Z,3159.00
2023-05-05T03:28:24.937Z,3153.00
2023-05-05T03:29:24.912Z,3158.00
2023-05-05T03:30:24.971Z,3148.00
2023-05-05T03:31:25.068Z,3158.00
2023-05-05T03:32:25.099Z,3147.00
2023-05-05T03:33:25.102Z,3152.00
2023-05-05T03:34:25.157Z,3149.00
2023-05-05T03:35:25.218Z,3139.00
2023-05-05T03:36:27.205Z,3140.00
2023-05-05T03:37:25.237Z,3155.00
2023-05-05T03:38:25.229Z,3146.00
2023-05-05T03:39:25.229Z,3141.00
2023-05-05T03:40:36.200Z,3142.00
2023-05-05T03:41:26.227Z,3143.00
2023-05-05T03:42:25.206Z,3145.00
2023-05-05T03:43:25.215Z,3141.00
2023-05-05T03:44:25.230Z,3149.00
2023-05-05T03:45:25.204Z,3148.00
2023-05-05T03:46:25.171Z,3146.00
2023-05-05T03:47:25.162Z,3144.00
2023-05-05T03:48:25.173Z,3140.00
2023-05-05T03:49:25.145Z,3132.00
2023-05-05T03:50:25.168Z,3125.00
2023-05-05T03:51:25.129Z,3136.00
2023-05-05T03:52:25.116Z,3137.00
2023-05-05T03:53:25.134Z,3120.00
2023-05-05T03:54:25.119Z,3117.00
2023-05-05T03:55:25.173Z,3126.00
2023-05-05T03:56:25.159Z,3110.00
2023-05-05T03:57:25.196Z,3106.00
2023-05-05T03:58:25.209Z,3110.00
2023-05-05T03:59:25.266Z,3120.00
2023-05-05T04:00:25.290Z,3109.00
2023-05-05T04:01:25.372Z,3107.00
2023-05-05T04:02:25.505Z,3097.00
2023-05-05T04:03:25.572Z,3113.00
2023-05-05T04:04:25.506Z,3104.00
2023-05-05T04:05:25.488Z,3066.00
2023-05-05T04:06:25.537Z,3051.00
2023-05-05T04:07:25.584Z,3031.00
2023-05-05T04:08:25.621Z,3028.00
2023-05-05T04:09:25.631Z,2999.00
2023-05-05T04:10:25.693Z,2975.00
2023-05-05T04:11:25.741Z,2950.00
2023-05-05T04:12:25.773Z,2945.00
2023-05-05T04:13:25.878Z,2924.00
2023-05-05T04:14:25.884Z,2904.00
2023-05-05T04:15:25.898Z,2890.00
2023-05-05T04:16:26.038Z,2881.00
2023-05-05T04:17:26.044Z,2868.00
2023-05-05T04:18:26.098Z,2852.00
2023-05-05T04:19:26.132Z,2829.00
2023-05-05T04:20:26.201Z,2818.00
2023-05-05T04:21:26.238Z,2777.00
2023-05-05T04:22:26.323Z,2790.00
2023-05-05T04:23:26.334Z,2786.00
2023-05-05T04:24:26.367Z,2751.00
2023-05-05T04:25:26.420Z,2744.00
2023-05-05T04:26:26.506Z,2725.00
2023-05-05T04:27:26.538Z,2726.00
2023-05-05T04:28:26.592Z,2721.00
2023-05-05T04:29:26.647Z,2704.00
2023-05-05T04:30:26.656Z,2692.00
2023-05-05T04:31:26.774Z,2672.00
2023-05-05T04:32:26.859Z,2675.00
2023-05-05T04:33:26.840Z,2664.00
2023-05-05T04:34:26.889Z,2677.00
2023-05-05T04:35:26.932Z,2670.00
2023-05-05T04:36:26.979Z,2675.00
2023-05-05T04:37:27.032Z,2680.00
2023-05-05T04:38:27.119Z,2695.00
2023-05-05T04:39:27.092Z,2684.00
2023-05-05T04:40:27.167Z,2681.00
2023-05-05T04:41:28.904Z,2685.00
2023-05-05T04:42:27.190Z,2690.00
2023-05-05T04:43:27.184Z,2674.00
2023-05-05T04:44:27.136Z,2689.00
2023-05-05T04:45:27.140Z,2697.00
2023-05-05T04:46:27.182Z,2692.00
2023-05-05T04:47:27.245Z,2694.00
2023-05-05T04:48:27.125Z,2697.00
2023-05-05T04:49:27.117Z,2691.00
2023-05-05T04:50:27.102Z,2703.00
2023-05-05T04:51:27.103Z,2700.00
2023-05-05T04:52:27.120Z,2697.00
2023-05-05T04:53:27.102Z,2700.00
2023-05-05T04:54:27.166Z,2706.00
2023-05-05T04:55:27.075Z,2703.00
2023-05-05T04:56:27.058Z,2703.00
2023-05-05T04:57:27.069Z,2694.00
2023-05-05T04:58:27.080Z,2710.00
2023-05-05T04:59:27.051Z,2706.00
2023-05-05T05:00:27.027Z,2709.00
2023-05-05T05:01:27.108Z,2713.00
2023-05-05T05:02:27.064Z,2699.00
2023-05-05T05:03:27.153Z,2717.00
2023-05-05T05:04:26.985Z,2707.00
2023-05-05T05:05:27.002Z,2707.00
2023-05-05T05:06:27.037Z,2707.00
2023-05-05T05:07:26.992Z,2710.00
2023-05-05T05:08:27.012Z,2713.00
2023-05-05T05:09:26.995Z,2707.00
2023-05-05T05:10:26.960Z,2701.00
2023-05-05T05:11:26.974Z,2714.00
2023-05-05T05:12:26.947Z,2696.00
2023-05-05T05:13:27.006Z,2704.00
2023-05-05T05:14:26.985Z,2705.00
2023-05-05T05:15:26.936Z,2705.00
2023-05-05T05:16:27.060Z,2707.00
2023-05-05T05:17:27.013Z,2709.00
2023-05-05T05:18:26.959Z,2700.00
2023-05-05T05:19:26.911Z,2694.00
2023-05-05T05:20:26.892Z,2695.00
2023-05-05T05:21:26.930Z,2710.00
2023-05-05T05:22:26.893Z,2701.00
2023-05-05T05:23:26.925Z,2701.00
2023-05-05T05:24:26.869Z,2691.00
2023-05-05T05:25:26.883Z,2692.00
2023-05-05T05:26:26.861Z,2696.00
2023-05-05T05:27:26.879Z,2681.00
2023-05-05T05:28:26.877Z,2693.00
2023-05-05T05:29:26.847Z,2696.00
2023-05-05T05:30:26.855Z,2691.00
2023-05-05T05:31:26.847Z,2684.00
2023-05-05T05:32:26.940Z,2680.00
2023-05-05T05:33:26.991Z,2658.00
2023-05-05T05:34:26.834Z,2654.00
2023-05-05T05:35:26.838Z,2667.00
2023-05-05T05:36:27.034Z,2667.00
2023-05-05T05:37:26.905Z,2672.00
2023-05-05T05:38:26.815Z,2679.00
2023-05-05T05:39:26.812Z,2691.00
2023-05-05T05:40:26.856Z,2713.00
2023-05-05T05:41:26.768Z,2712.00
2023-05-05T05:42:27.884Z,2703.00
2023-05-05T05:43:26.775Z,2702.00
2023-05-05T05:44:27.037Z,2731.00
2023-05-05T05:45:26.740Z,2740.00
2023-05-05T05:46:26.776Z,2742.00
2023-05-05T05:47:26.769Z,2766.00
2023-05-05T05:48:26.804Z,2768.00
2023-05-05T05:49:26.714Z,2794.00
2023-05-05T05:50:26.790Z,2801.00
2023-05-05T05:51:26.728Z,2813.00
2023-05-05T05:52:26.696Z,2823.00
2023-05-05T05:53:26.699Z,2832.00
2023-05-05T05:54:27.070Z,2826.00
2023-05-05T05:55:26.692Z,2815.00
2023-05-05T05:56:26.736Z,2831.00
2023-05-05T05:57:27.037Z,2824.00
2023-05-05T05:58:26.667Z,2839.00
2023-05-05T05:59:26.735Z,2822.00
2023-05-05T06:00:26.758Z,2824.00
2023-05-05T06:01:26.632Z,2817.00
2023-05-05T06:02:26.847Z,2812.00
2023-05-05T06:03:26.985Z,2815.00
2023-05-05T06:04:26.711Z,2806.00
2023-05-05T06:05:26.622Z,2806.00
2023-05-05T06:06:26.689Z,2806.00
2023-05-05T06:07:26.735Z,2802.00
2023-05-05T06:08:27.063Z,2792.00
2023-05-05T06:09:26.849Z,2774.00
2023-05-05T06:10:28.301Z,2776.00
2023-05-05T06:11:26.956Z,2773.00
2023-05-05T06:12:26.992Z,2758.00
2023-05-05T06:13:27.588Z,2764.00
2023-05-05T06:14:27.114Z,2760.00
2023-05-05T06:15:27.154Z,2739.00
2023-05-05T06:16:27.231Z,2734.00
2023-05-05T06:17:27.241Z,2738.00
2023-05-05T06:18:27.382Z,2732.00
2023-05-05T06:19:27.346Z,2716.00
2023-05-05T06:20:27.391Z,2715.00
2023-05-05T06:21:27.519Z,2719.00
2023-05-05T06:22:27.457Z,2704.00
2023-05-05T06:23:27.509Z,2697.00
2023-05-05T06:24:27.576Z,2682.00
2023-05-05T06:25:27.580Z,2678.00
2023-05-05T06:26:27.607Z,2677.00
2023-05-05T06:27:27.643Z,2689.00
2023-05-05T06:28:28.030Z,2673.00
2023-05-05T06:29:27.726Z,2681.00
2023-05-05T06:30:27.737Z,2671.00
2023-05-05T06:31:27.752Z,2666.00
2023-05-05T06:32:27.779Z,2678.00
2023-05-05T06:33:27.722Z,2668.00
2023-05-05T06:34:27.743Z,2671.00
2023-05-05T06:35:27.851Z,2664.00
2023-05-05T06:36:27.758Z,2686.00
2023-05-05T06:37:27.767Z,2674.00
2023-05-05T06:38:27.752Z,2666.00
2023-05-05T06:39:27.728Z,2675.00
2023-05-05T06:40:28.098Z,2671.00
2023-05-05T06:41:27.825Z,2681.00
2023-05-05T06:42:27.881Z,2660.00
2023-05-05T06:43:27.888Z,2665.00
2023-05-05T06:44:27.972Z,2672.00
2023-05-05T06:45:28.009Z,2665.00
2023-05-05T06:46:28.103Z,2673.00
2023-05-05T06:47:28.147Z,2661.00
2023-05-05T06:48:28.226Z,2655.00
2023-05-05T06:49:28.253Z,2665.00
2023-05-05T06:50:28.286Z,2667.00
2023-05-05T06:51:28.398Z,2667.00
2023-05-05T06:52:28.588Z,2667.00
2023-05-05T06:53:28.469Z,2658.00
2023-05-05T06:54:28.550Z,2654.00
2023-05-05T06:55:29.072Z,2657.00
2023-05-05T06:56:29.135Z,2662.00
2023-05-05T06:57:28.724Z,2654.00
2023-05-05T06:58:28.777Z,2673.00
2023-05-05T06:59:28.907Z,2660.00
2023-05-05T07:00:28.854Z,2663.00
2023-05-05T07:01:28.927Z,2654.00
2023-05-05T07:02:28.994Z,2663.00
2023-05-05T07:03:29.018Z,2661.00
2023-05-05T07:04:29.565Z,2654.00
2023-05-05T07:05:29.142Z,2645.00
2023-05-05T07:06:29.184Z,2640.00
2023-05-05T07:07:29.198Z,2659.00
2023-05-05T07:08:29.593Z,2638.00
2023-05-05T07:09:29.299Z,2649.00
2023-05-05T07:10:29.416Z,2653.00
2023-05-05T07:11:29.382Z,2654.00
2023-05-05T07:12:29.500Z,2651.00
2023-05-05T07:13:29.838Z,2645.00
2023-05-05T07:14:29.471Z,2655.00
2023-05-05T07:15:29.887Z,2642.00
2023-05-05T07:16:29.543Z,2637.00
2023-05-05T07:17:29.623Z,2649.00
2023-05-05T07:18:29.596Z,2643.00
2023-05-05T07:19:29.650Z,2651.00
2023-05-05T07:20:29.653Z,2647.00
2023-05-05T07:21:29.680Z,2634.00
2023-05-05T07:22:29.662Z,2642.00
2023-05-05T07:23:29.686Z,2637.00
2023-05-05T07:24:29.731Z,2635.00
2023-05-05T07:25:29.680Z,2634.00
2023-05-05T07:26:29.689Z,2622.00
2023-05-05T07:27:29.725Z,2629.00
2023-05-05T07:28:30.141Z,2643.00
2023-05-05T07:29:29.752Z,2626.00
2023-05-05T07:30:29.760Z,2627.00
2023-05-05T07:31:29.785Z,2619.00
2023-05-05T07:32:29.876Z,2621.00
2023-05-05T07:33:29.762Z,2628.00
2023-05-05T07:34:29.775Z,2629.00
2023-05-05T07:35:30.102Z,2620.00
2023-05-05T07:36:29.856Z,2631.00
2023-05-05T07:37:29.853Z,2639.00
2023-05-05T07:38:30.189Z,2627.00
2023-05-05T07:39:30.122Z,2614.00
2023-05-05T07:40:30.218Z,2631.00
2023-05-05T07:41:29.918Z,2625.00
2023-05-05T07:42:29.965Z,2623.00
2023-05-05T07:43:29.933Z,2633.00
2023-05-05T07:44:30.151Z,2604.00
2023-05-05T07:45:30.086Z,2604.00
2023-05-05T07:46:29.966Z,2604.00
2023-05-05T07:47:30.239Z,2595.00
2023-05-05T07:48:29.968Z,2555.00
2023-05-05T07:49:30.073Z,2565.00
2023-05-05T07:50:30.095Z,2543.00
2023-05-05T07:51:30.206Z,2536.00
2023-05-05T07:52:44.307Z,2523.00
2023-05-05T07:53:31.124Z,2494.00
2023-05-05T07:54:30.106Z,2493.00
2023-05-05T07:55:30.034Z,2487.00
2023-05-05T07:56:30.013Z,2456.00
2023-05-05T07:57:30.026Z,2449.00
2023-05-05T07:58:30.006Z,2413.00
2023-05-05T07:59:29.998Z,2374.00
2023-05-05T08:00:30.185Z,2365.00
2023-05-05T08:01:30.053Z,2353.00
2023-05-05T08:02:30.109Z,2351.00
2023-05-05T08:03:30.165Z,2333.00
2023-05-05T08:04:30.012Z,2296.00
2023-05-05T08:05:29.981Z,2289.00
2023-05-05T08:06:29.997Z,2299.00
2023-05-05T08:07:29.923Z,2259.00
2023-05-05T08:08:29.957Z,2244.00
2023-05-05T08:09:29.969Z,2237.00
2023-05-05T08:10:29.953Z,2224.00
2023-05-05T08:11:29.912Z,2180.00
2023-05-05T08:12:29.931Z,2192.00
2023-05-05T08:13:29.917Z,2184.00
2023-05-05T08:14:29.907Z,2222.00
2023-05-05T08:15:29.862Z,2227.00
2023-05-05T08:16:30.129Z,2216.00
2023-05-05T08:17:29.959Z,2220.00
2023-05-05T08:18:30.552Z,2229.00
2023-05-05T08:19:29.910Z,2240.00
2023-05-05T08:20:30.110Z,2244.00
2023-05-05T08:21:29.889Z,2239.00
2023-05-05T08:22:29.955Z,2244.00
2023-05-05T08:23:29.931Z,2263.00
2023-05-05T08:24:30.008Z,2272.00
2023-05-05T08:25:30.095Z,2263.00
2023-05-05T08:26:30.091Z,2233.00
2023-05-05T08:27:30.100Z,2293.00
2023-05-05T08:28:30.226Z,2295.00
2023-05-05T08:29:30.627Z,2308.00
2023-05-05T08:30:30.118Z,2297.00
2023-05-05T08:31:30.194Z,2131.00
2023-05-05T08:32:30.333Z,2001.00
2023-05-05T08:33:30.223Z,2114.00
2023-05-05T08:34:30.284Z,1726.00
2023-05-05T08:35:30.343Z,1381.00
2023-05-05T08:36:30.394Z,1350.00
2023-05-05T08:37:30.605Z,1179.00
2023-05-05T08:38:30.487Z,1083.00
2023-05-05T08:39:30.596Z,1012.00
2023-05-05T08:40:30.629Z,1185.00
2023-05-05T08:41:30.681Z,961.00
2023-05-05T08:42:37.977Z,898.00
2023-05-05T08:43:32.114Z,899.00
2023-05-05T08:44:30.714Z,900.00
2023-05-05T08:45:30.790Z,935.00
2023-05-05T08:46:31.188Z,1119.00
2023-05-05T08:47:30.778Z,1229.00
2023-05-05T08:48:30.793Z,1195.00
2023-05-05T08:49:30.698Z,1180.00
2023-05-05T08:50:30.709Z,1169.00
2023-05-05T08:51:30.703Z,1256.00
2023-05-05T08:52:30.827Z,1315.00
2023-05-05T08:53:30.888Z,1446.00
2023-05-05T08:54:31.142Z,1387.00
2023-05-05T08:55:30.884Z,1353.00
2023-05-05T08:56:30.878Z,1461.00
2023-05-05T08:57:30.918Z,1505.00
2023-05-05T08:58:30.926Z,1639.00
2023-05-05T08:59:30.979Z,1660.00
2023-05-05T09:00:31.029Z,1605.00
2023-05-05T09:01:31.097Z,1523.00
2023-05-05T09:02:31.086Z,1289.00
2023-05-05T09:03:31.075Z,1287.00
2023-05-05T09:04:31.281Z,1147.00
2023-05-05T09:05:31.107Z,1060.00
2023-05-05T09:06:31.066Z,1000.00
2023-05-05T09:07:31.142Z,1013.00
2023-05-05T09:08:31.129Z,846.00
2023-05-05T09:09:31.138Z,721.00
2023-05-05T09:10:31.158Z,769.00
2023-05-05T09:11:31.185Z,752.00
2023-05-05T09:12:31.717Z,799.00
2023-05-05T09:13:31.623Z,620.00
2023-05-05T09:14:31.229Z,625.00
2023-05-05T09:15:31.280Z,534.00
2023-05-05T09:16:31.342Z,499.00
2023-05-05T09:17:31.368Z,469.00
2023-05-05T09:18:31.657Z,400.00
2023-05-05T09:19:31.620Z,439.00
2023-05-05T09:20:31.695Z,476.00
2023-05-05T09:21:31.515Z,503.00
2023-05-05T09:22:31.560Z,520.00
2023-05-05T09:23:31.685Z,659.00
2023-05-05T09:24:31.653Z,955.00
2023-05-05T09:25:31.716Z,1124.00
2023-05-05T09:26:31.755Z,1253.00
2023-05-05T09:27:32.108Z,1209.00
2023-05-05T09:28:32.118Z,1141.00
2023-05-05T09:29:31.936Z,1128.00
2023-05-05T09:30:32.059Z,1137.00
2023-05-05T09:31:32.094Z,1020.00
2023-05-05T09:32:32.157Z,1149.00
2023-05-05T09:33:32.178Z,1271.00
2023-05-05T09:34:32.149Z,1116.00
2023-05-05T09:35:32.237Z,1295.00
2023-05-05T09:36:33.181Z,1156.00
2023-05-05T09:37:32.304Z,1201.00
2023-05-05T09:38:32.658Z,1324.00
2023-05-05T09:39:32.314Z,1173.00
2023-05-05T09:40:32.344Z,1222.00
2023-05-05T09:41:32.405Z,1140.00
2023-05-05T09:42:32.410Z,1255.00
2023-05-05T09:43:32.654Z,1389.00
2023-05-05T09:44:32.425Z,1503.00
2023-05-05T09:45:32.457Z,1518.00
2023-05-05T09:46:32.542Z,1057.00
2023-05-05T09:47:32.955Z,655.00
2023-05-05T09:48:32.694Z,639.00
2023-05-05T09:49:32.531Z,642.00
2023-05-05T09:50:32.664Z,618.00
2023-05-05T09:51:32.586Z,600.00
2023-05-05T09:52:32.691Z,754.00
2023-05-05T09:53:33.141Z,955.00
2023-05-05T09:54:32.709Z,1032.00
2023-05-05T09:55:32.744Z,1049.00
2023-05-05T09:56:32.701Z,1019.00
2023-05-05T09:57:32.787Z,937.00
2023-05-05T09:58:32.806Z,890.00
2023-05-05T09:59:32.853Z,576.00
2023-05-05T10:00:32.892Z,565.00
2023-05-05T10:01:32.956Z,633.00
2023-05-05T10:02:33.087Z,588.00
2023-05-05T10:03:33.038Z,773.00
2023-05-05T10:04:33.163Z,927.00
2023-05-05T10:05:33.149Z,915.00
2023-05-05T10:06:33.209Z,655.00
2023-05-05T10:07:33.263Z,594.00
2023-05-05T10:08:33.388Z,611.00
2023-05-05T10:09:33.337Z,578.00
2023-05-05T10:10:33.405Z,583.00
2023-05-05T10:11:33.457Z,721.00
2023-05-05T10:12:33.536Z,914.00
2023-05-05T10:13:33.557Z,1033.00
2023-05-05T10:14:33.629Z,1084.00
2023-05-05T10:15:33.808Z,1268.00
2023-05-05T10:16:34.205Z,1379.00
2023-05-05T10:17:33.894Z,1289.00
2023-05-05T10:18:33.920Z,1092.00
2023-05-05T10:19:33.955Z,946.00
2023-05-05T10:20:34.020Z,998.00
2023-05-05T10:21:34.090Z,753.00
2023-05-05T10:22:34.135Z,636.00
2023-05-05T10:23:34.123Z,704.00
2023-05-05T10:24:34.278Z,908.00
2023-05-05T10:25:34.266Z,1140.00
2023-05-05T10:26:34.343Z,1366.00
2023-05-05T10:27:34.376Z,1469.00
2023-05-05T10:28:34.452Z,1385.00
2023-05-05T10:29:34.505Z,1454.00
2023-05-05T10:30:34.499Z,1513.00
2023-05-05T10:31:34.619Z,1483.00
2023-05-05T10:33:35.752Z,1499.00
2023-05-05T10:34:34.657Z,1530.00
2023-05-05T10:35:34.581Z,1549.00
2023-05-05T10:36:34.595Z,1596.00
2023-05-05T10:37:34.672Z,1715.00
2023-05-05T10:38:34.548Z,1749.00
2023-05-05T10:39:34.558Z,1724.00
2023-05-05T10:40:34.538Z,1842.00
2023-05-05T10:41:34.655Z,1939.00
2023-05-05T10:42:34.538Z,1967.00
2023-05-05T10:43:34.501Z,2091.00
2023-05-05T10:44:34.497Z,2134.00
2023-05-05T10:45:34.654Z,2159.00
2023-05-05T10:46:34.552Z,2172.00
2023-05-05T10:47:34.538Z,2185.00
2023-05-05T10:48:34.506Z,2184.00
2023-05-05T10:49:34.488Z,2240.00
2023-05-05T10:50:34.489Z,2299.00
2023-05-05T10:51:40.354Z,2267.00
2023-05-05T10:52:35.672Z,2268.00
2023-05-05T10:53:34.465Z,2276.00
2023-05-05T10:54:35.766Z,2283.00
2023-05-05T10:55:34.675Z,2268.00
2023-05-05T10:56:34.453Z,2350.00
2023-05-05T10:57:34.690Z,2365.00
2023-05-05T10:58:40.804Z,2373.00
2023-05-05T10:59:35.425Z,2375.00
2023-05-05T11:00:34.394Z,2386.00
2023-05-05T11:01:34.627Z,2400.00
2023-05-05T11:02:34.714Z,2382.00
2023-05-05T11:03:34.424Z,2367.00
2023-05-05T11:04:34.366Z,2474.00
2023-05-05T11:05:34.391Z,2475.00
2023-05-05T11:06:34.389Z,2497.00
2023-05-05T11:07:34.705Z,2501.00
2023-05-05T11:08:34.350Z,2490.00
2023-05-05T11:09:34.327Z,2524.00
2023-05-05T11:10:34.476Z,2551.00
2023-05-05T11:11:34.318Z,2567.00
2023-05-05T11:12:36.067Z,2603.00
2023-05-05T11:13:34.310Z,2571.00
2023-05-05T11:14:34.669Z,2556.00
2023-05-05T11:15:34.320Z,2586.00
2023-05-05T11:16:34.358Z,2386.00
2023-05-05T11:17:34.345Z,2498.00
2023-05-05T11:18:34.263Z,2562.00
2023-05-05T11:19:34.715Z,2658.00
2023-05-05T11:20:34.249Z,2715.00
2023-05-05T11:21:34.687Z,2751.00
2023-05-05T11:22:34.230Z,2739.00
2023-05-05T11:23:34.251Z,2724.00
2023-05-05T11:24:34.276Z,2687.00
2023-05-05T11:25:34.239Z,2688.00
2023-05-05T11:26:34.221Z,2634.00
2023-05-05T11:27:34.253Z,2641.00
2023-05-05T11:28:34.280Z,2596.00
2023-05-05T11:29:34.245Z,2564.00
2023-05-05T11:30:34.218Z,2556.00
2023-05-05T11:31:34.247Z,2511.00
2023-05-05T11:32:34.320Z,2471.00
2023-05-05T11:33:34.230Z,2458.00
2023-05-05T11:34:34.160Z,2418.00
2023-05-05T11:35:34.164Z,2442.00
2023-05-05T11:36:34.204Z,2363.00
2023-05-05T11:37:34.139Z,2350.00
2023-05-05T11:38:34.207Z,2306.00
2023-05-05T11:39:34.153Z,2307.00
2023-05-05T11:40:34.165Z,2235.00
2023-05-05T11:41:34.108Z,2235.00
2023-05-05T11:42:34.114Z,2193.00
2023-05-05T11:43:34.083Z,2134.00
2023-05-05T11:44:34.173Z,2076.00
2023-05-05T11:45:34.139Z,2039.00
2023-05-05T11:46:34.080Z,2090.00
2023-05-05T11:47:34.109Z,2003.00
2023-05-05T11:48:34.059Z,1961.00
2023-05-05T11:49:34.092Z,2011.00
2023-05-05T11:50:34.068Z,1960.00
2023-05-05T11:51:34.054Z,1969.00
2023-05-05T11:52:34.042Z,1974.00
2023-05-05T11:53:34.029Z,1909.00
2023-05-05T11:54:34.057Z,1916.00
2023-05-05T11:55:34.004Z,1908.00
2023-05-05T11:56:34.009Z,1898.00
2023-05-05T11:57:33.962Z,1969.00
2023-05-05T11:58:34.026Z,2016.00
2023-05-05T11:59:33.959Z,2066.00
2023-05-05T12:00:34.071Z,2086.00
2023-05-05T12:01:33.991Z,2128.00
2023-05-05T12:02:34.040Z,2162.00
2023-05-05T12:03:34.058Z,2158.00
2023-05-05T12:04:33.994Z,2166.00
2023-05-05T12:05:36.400Z,2191.00
2023-05-05T12:06:33.915Z,2184.00
2023-05-05T12:07:33.928Z,1767.00
2023-05-05T12:08:33.931Z,1494.00